DENVER INTL

KDEN (DEN)
Denver, Colorado
Towered

Vatsim Metar:
KDEN 291853Z 05008KT 2 1/2SM -SN BKN020 OVC035 M17/M20 A3000 RMK AO2 SFC VIS 3 SLP244 VIS N 2 P0000 T11721200

DENVER INTL ATC

DEN_TWR - 132.350 - Marty Pease
Callsign H-C-F Center CPDLC Login PHZH Alternative approach available on request Feel free to leave feed back at https //www.vhcf.net/feedback
DEN_2_CTR - 127.650 - Andrew Capps
Your feedback good or bad is our only for of payment!!! Thanks https //denartcc.org/feedback/create

Traffic

Inbound:
Ident
Type
Name
ETA
Phase
SWA2256
B73W
Ron Coyle Jr KMSY
Deplaning
N21CAV
TBM9
Tim Riney KTPA
19:39 Z
Cruse
SWA154
B737
Andrew Goyer KALB
19:43 Z
Cruse
SWA1670
B738
Kevin Wilkerson KPHL
20:39 Z
Climb
AJI118
B732
Daniel Ciavardini KATL
Boarding
WJA1082
B738
Steve Pupkar KBOS
20:31 Z
Cruse
AAL1160
B738
Martin Hall KLGA
21:08 Z
Cruse
SWA1324
B737
Harry KPHX
21:41 Z
Climb
UAL420
A20N
Billy KORF
Boarding

Outbound:
Ident
Type
Name
Destination
Phase
SKW5477
CRJ7
Noah Harget KORD
KASE
Taxiing Out
DAL776
A21N
Dakota Earl KSLC
KBOS
Taxiing Out
SWA1954
B737
1374893 KTUL
KOKC
Taxiing Out
FDY883
C208
Jack Jones KGJT
KCDR
Boarding
SKW5343
CRJ7
Theodore Pickens KBDU
KLWS
Climb
UAL2800
B739
964368 MMDO
KSMO
Climb
UAL2258
B738
Brian Schwark KBWI
KBWI
Climb
UAL2312
B738
Perez H. TAPA
KORD
Climb
AAY37
A320
Darius J KJAX
KTVL
Climb

SIDs

STARS

Alternate Minimums

Hot Spots